createdAt,value
2022-08-16T00:02:30.310Z,21.16
2022-08-16T00:04:59.602Z,21.16
2022-08-16T00:07:30.598Z,21.03
2022-08-16T00:09:59.067Z,21.10
2022-08-16T00:12:28.556Z,21.00
2022-08-16T00:14:57.370Z,20.98
2022-08-16T00:17:28.162Z,20.93
2022-08-16T00:19:55.989Z,20.96
2022-08-16T00:22:25.366Z,20.91
2022-08-16T00:24:54.560Z,20.86
2022-08-16T00:27:23.080Z,20.80
2022-08-16T00:30:08.401Z,20.78
2022-08-16T00:32:38.468Z,20.68
2022-08-16T00:35:15.251Z,20.61
2022-08-16T00:37:57.451Z,20.56
2022-08-16T00:40:43.838Z,20.65
2022-08-16T00:43:43.174Z,20.58
2022-08-16T00:46:32.788Z,20.55
2022-08-16T00:49:02.813Z,20.47
2022-08-16T00:51:30.462Z,20.49
2022-08-16T00:53:57.839Z,20.46
2022-08-16T00:56:58.010Z,20.43
2022-08-16T00:59:19.224Z,20.46
2022-08-16T01:01:46.654Z,20.44
2022-08-16T01:04:29.070Z,20.39
2022-08-16T01:07:02.345Z,20.42
2022-08-16T01:09:37.315Z,20.39
2022-08-16T01:12:08.457Z,20.35
2022-08-16T01:14:50.774Z,20.32
2022-08-16T01:17:24.186Z,20.33
2022-08-16T01:19:59.399Z,20.25
2022-08-16T01:23:01.723Z,20.35
2022-08-16T01:25:37.052Z,20.28
2022-08-16T01:28:09.771Z,20.22
2022-08-16T01:30:49.660Z,20.11
2022-08-16T01:33:19.293Z,20.20
2022-08-16T01:36:11.991Z,20.16
2022-08-16T01:38:48.849Z,20.18
2022-08-16T01:41:21.522Z,20.16
2022-08-16T01:43:53.682Z,20.14
2022-08-16T01:46:39.567Z,20.10
2022-08-16T01:49:43.468Z,20.06
2022-08-16T01:52:29.301Z,20.00
2022-08-16T01:54:57.361Z,20.00
2022-08-16T01:57:24.725Z,19.94
2022-08-16T01:59:54.743Z,20.02
2022-08-16T02:02:28.394Z,20.09
2022-08-16T02:04:56.198Z,20.07
2022-08-16T02:07:24.718Z,19.91
2022-08-16T02:09:57.267Z,19.91
2022-08-16T02:12:50.155Z,19.86
2022-08-16T02:15:16.959Z,19.75
2022-08-16T02:17:43.954Z,19.75
2022-08-16T02:20:12.360Z,19.77
2022-08-16T02:22:39.985Z,19.70
2022-08-16T02:25:10.879Z,19.71
2022-08-16T02:27:42.812Z,19.66
2022-08-16T02:30:37.452Z,19.71
2022-08-16T02:33:06.212Z,19.71
2022-08-16T02:35:34.274Z,19.70
2022-08-16T02:38:16.885Z,19.75
2022-08-16T02:40:45.781Z,19.69
2022-08-16T02:43:13.577Z,19.69
2022-08-16T02:45:41.505Z,19.63
2022-08-16T02:48:30.563Z,19.69
2022-08-16T02:51:06.784Z,19.56
2022-08-16T02:53:44.649Z,19.59
2022-08-16T02:56:15.161Z,19.59
2022-08-16T02:58:44.223Z,19.45
2022-08-16T03:01:24.241Z,19.53
2022-08-16T03:04:29.628Z,19.48
2022-08-16T03:06:48.019Z,19.54
2022-08-16T03:09:18.104Z,19.55
2022-08-16T03:11:47.328Z,19.59
2022-08-16T03:14:14.679Z,19.61
2022-08-16T03:16:59.693Z,19.63
2022-08-16T03:19:48.770Z,19.62
2022-08-16T03:22:19.447Z,19.65
2022-08-16T03:24:57.546Z,19.61
2022-08-16T03:27:25.188Z,19.63
2022-08-16T03:29:59.970Z,19.65
2022-08-16T03:32:26.739Z,19.63
2022-08-16T03:34:53.500Z,19.63
2022-08-16T03:37:20.269Z,19.65
2022-08-16T03:39:47.514Z,19.70
2022-08-16T03:42:20.453Z,19.67
2022-08-16T03:44:50.168Z,19.71
2022-08-16T03:47:19.035Z,19.72
2022-08-16T03:49:51.743Z,19.96
2022-08-16T03:52:23.367Z,19.86
2022-08-16T03:54:57.783Z,19.92
2022-08-16T03:57:31.841Z,19.87
2022-08-16T04:00:35.042Z,19.75
2022-08-16T04:03:08.712Z,20.00
2022-08-16T04:05:39.180Z,20.03
2022-08-16T04:08:24.098Z,20.07
2022-08-16T04:10:54.011Z,20.01
2022-08-16T04:14:01.515Z,20.13
2022-08-16T04:16:09.481Z,19.98
2022-08-16T04:18:54.391Z,19.97
2022-08-16T04:21:31.022Z,20.05
2022-08-16T04:23:59.598Z,20.04
2022-08-16T04:26:31.233Z,20.04
2022-08-16T04:29:15.192Z,20.15
2022-08-16T04:31:56.341Z,20.35
2022-08-16T04:34:27.474Z,20.36
2022-08-16T04:36:56.770Z,20.35
2022-08-16T04:39:24.495Z,20.35
2022-08-16T04:42:11.205Z,20.37
2022-08-16T04:44:53.434Z,20.41
2022-08-16T04:47:24.637Z,20.36
2022-08-16T04:49:52.679Z,20.46
2022-08-16T04:52:34.468Z,20.56
2022-08-16T04:55:19.743Z,20.68
2022-08-16T04:57:53.436Z,20.71
2022-08-16T05:00:31.969Z,20.83
2022-08-16T05:03:11.145Z,20.86
2022-08-16T05:05:45.307Z,21.02
2022-08-16T05:08:30.727Z,21.16
2022-08-16T05:11:05.761Z,21.17
2022-08-16T05:13:40.768Z,21.18
2022-08-16T05:16:20.344Z,21.04
2022-08-16T05:18:51.725Z,21.04
2022-08-16T05:21:20.660Z,21.02
2022-08-16T05:23:55.527Z,20.98
2022-08-16T05:26:28.089Z,21.11
2022-08-16T05:28:57.235Z,21.24
2022-08-16T05:31:29.664Z,21.24
2022-08-16T05:33:59.736Z,21.22
2022-08-16T05:36:33.883Z,21.20
2022-08-16T05:39:08.763Z,21.27
2022-08-16T05:41:45.186Z,21.29
2022-08-16T05:44:22.523Z,21.30
2022-08-16T05:47:00.244Z,21.30
2022-08-16T05:49:39.906Z,21.34
2022-08-16T05:52:13.591Z,21.33
2022-08-16T05:54:47.672Z,21.50
2022-08-16T05:57:17.257Z,21.75
2022-08-16T05:59:47.321Z,21.91
2022-08-16T06:02:18.306Z,22.20
2022-08-16T06:04:45.751Z,22.43
2022-08-16T06:07:25.047Z,22.83
2022-08-16T06:09:59.648Z,23.18
2022-08-16T06:12:29.059Z,23.66
2022-08-16T06:15:07.644Z,23.81
2022-08-16T06:17:41.525Z,23.96
2022-08-16T06:20:23.721Z,24.00
2022-08-16T06:23:03.068Z,24.56
2022-08-16T06:25:36.474Z,24.56
2022-08-16T06:28:09.631Z,24.83
2022-08-16T06:30:43.897Z,25.67
2022-08-16T06:33:22.273Z,26.22
2022-08-16T06:35:50.715Z,26.21
2022-08-16T06:38:33.413Z,26.70
2022-08-16T06:41:06.535Z,27.16
2022-08-16T06:43:41.999Z,27.13
2022-08-16T06:46:22.038Z,27.35
2022-08-16T06:48:51.848Z,27.12
2022-08-16T06:51:18.722Z,27.27
2022-08-16T06:53:46.089Z,25.81
2022-08-16T06:56:14.747Z,25.82
2022-08-16T06:58:51.944Z,26.49
2022-08-16T07:01:25.593Z,26.43
2022-08-16T07:04:10.288Z,26.05
2022-08-16T07:06:37.853Z,26.72
2022-08-16T07:09:09.759Z,26.64
2022-08-16T07:11:48.105Z,26.92
2022-08-16T07:14:25.893Z,25.98
2022-08-16T07:16:55.796Z,25.74
2022-08-16T07:19:33.495Z,25.94
2022-08-16T07:22:38.285Z,26.17
2022-08-16T07:25:00.252Z,26.54
2022-08-16T07:27:27.617Z,26.08
2022-08-16T07:29:56.266Z,26.07
2022-08-16T07:32:29.744Z,26.03
2022-08-16T07:34:58.946Z,26.15
2022-08-16T07:37:25.758Z,26.03
2022-08-16T07:39:54.601Z,26.18
2022-08-16T07:42:28.311Z,26.41
2022-08-16T07:45:07.484Z,26.12
2022-08-16T07:47:37.412Z,26.26
2022-08-16T07:50:07.785Z,26.71
2022-08-16T07:52:35.173Z,26.52
2022-08-16T07:55:08.034Z,26.46
2022-08-16T07:57:44.403Z,26.25
2022-08-16T08:00:25.748Z,26.11
2022-08-16T08:02:55.465Z,25.80
2022-08-16T08:05:35.302Z,25.93
2022-08-16T08:08:11.935Z,26.25
2022-08-16T08:10:52.002Z,26.05
2022-08-16T08:13:18.788Z,26.28
2022-08-16T08:15:53.050Z,26.09
2022-08-16T08:18:30.212Z,26.19
2022-08-16T08:20:59.146Z,25.82
2022-08-16T08:23:27.641Z,25.83
2022-08-16T08:25:55.884Z,26.13
2022-08-16T08:28:23.444Z,25.91
2022-08-16T08:31:01.390Z,26.27
2022-08-16T08:33:31.378Z,26.13
2022-08-16T08:36:00.817Z,26.34
2022-08-16T08:38:45.218Z,26.24
2022-08-16T08:41:18.203Z,26.20
2022-08-16T08:43:46.253Z,26.39
2022-08-16T08:46:17.838Z,26.52
2022-08-16T08:49:01.977Z,26.42
2022-08-16T08:51:31.861Z,26.60
2022-08-16T08:54:09.483Z,26.40
2022-08-16T08:56:37.779Z,26.53
2022-08-16T08:59:20.347Z,26.80
2022-08-16T09:01:57.441Z,27.06
2022-08-16T09:04:26.882Z,27.23
2022-08-16T09:06:55.600Z,27.14
2022-08-16T09:09:23.459Z,27.44
2022-08-16T09:11:53.456Z,27.97
2022-08-16T09:14:25.163Z,28.10
2022-08-16T09:17:02.417Z,28.45
2022-08-16T09:19:33.000Z,28.64
2022-08-16T09:22:00.939Z,29.20
2022-08-16T09:24:46.591Z,28.78
2022-08-16T09:27:15.991Z,28.71
2022-08-16T09:29:45.297Z,28.94
2022-08-16T09:32:28.610Z,29.14
2022-08-16T09:34:58.461Z,29.33
2022-08-16T09:37:29.608Z,29.19
2022-08-16T09:40:01.199Z,28.78
2022-08-16T09:42:29.441Z,29.27
2022-08-16T09:45:11.272Z,29.21
2022-08-16T09:47:56.965Z,28.21
2022-08-16T09:50:36.755Z,28.54
2022-08-16T09:53:24.519Z,28.62
2022-08-16T09:55:56.817Z,29.23
2022-08-16T09:58:40.596Z,29.18
2022-08-16T10:01:18.973Z,29.50
2022-08-16T10:04:02.595Z,30.10
2022-08-16T10:06:33.454Z,30.08
2022-08-16T10:09:08.334Z,30.81
2022-08-16T10:12:11.443Z,29.72
2022-08-16T10:14:46.507Z,30.45
2022-08-16T10:17:13.535Z,30.82
2022-08-16T10:19:41.683Z,30.82
2022-08-16T10:22:13.045Z,30.94
2022-08-16T10:24:56.218Z,31.16
2022-08-16T10:27:47.014Z,30.68
2022-08-16T10:30:26.008Z,30.18
2022-08-16T10:32:56.177Z,30.59
2022-08-16T10:35:23.513Z,30.45
2022-08-16T10:37:52.364Z,30.55
2022-08-16T10:40:28.967Z,30.37
2022-08-16T10:43:00.340Z,30.26
2022-08-16T10:45:36.995Z,29.70
2022-08-16T10:48:27.251Z,30.48
2022-08-16T10:50:58.641Z,31.53
2022-08-16T10:53:33.030Z,31.49
2022-08-16T10:56:02.435Z,31.48
2022-08-16T10:58:33.997Z,30.60
2022-08-16T11:03:57.292Z,31.85
2022-08-16T11:06:26.908Z,32.28
2022-08-16T11:14:30.755Z,30.17
2022-08-16T11:17:09.061Z,31.16
2022-08-16T11:20:00.738Z,31.33
2022-08-16T11:22:47.038Z,31.96
2022-08-16T11:25:15.177Z,32.19
2022-08-16T11:28:01.255Z,32.55
2022-08-16T11:30:38.834Z,32.89
2022-08-16T11:33:07.041Z,33.12
2022-08-16T11:38:47.511Z,33.41
2022-08-16T11:41:10.737Z,33.36
2022-08-16T11:43:39.309Z,33.85
2022-08-16T11:46:34.173Z,33.23
2022-08-16T11:48:57.002Z,33.51
2022-08-16T11:51:23.729Z,33.23
2022-08-16T11:53:51.703Z,33.60
2022-08-16T11:56:28.571Z,33.80
2022-08-16T11:59:06.518Z,33.38
2022-08-16T12:01:44.165Z,32.82
2022-08-16T12:04:22.368Z,32.57
2022-08-16T12:06:50.140Z,32.24
2022-08-16T12:09:21.863Z,31.37
2022-08-16T12:11:52.526Z,31.15
2022-08-16T12:14:22.978Z,31.59
2022-08-16T12:16:55.571Z,31.59
2022-08-16T12:19:33.454Z,31.61
2022-08-16T12:22:01.627Z,31.02
2022-08-16T12:24:33.727Z,30.82
2022-08-16T12:27:02.206Z,30.60
2022-08-16T12:29:30.102Z,31.04
2022-08-16T12:32:00.892Z,30.65
2022-08-16T12:34:39.800Z,30.76
2022-08-16T12:37:18.120Z,31.28
2022-08-16T12:39:50.894Z,31.39
2022-08-16T12:42:19.485Z,32.41
2022-08-16T12:44:50.363Z,32.33
2022-08-16T12:47:36.234Z,31.75
2022-08-16T12:50:03.927Z,31.97
2022-08-16T12:52:33.691Z,31.20
2022-08-16T12:55:03.118Z,31.04
2022-08-16T12:57:36.252Z,30.85
2022-08-16T13:00:13.150Z,30.71
2022-08-16T13:02:54.012Z,31.21
2022-08-16T13:05:22.216Z,31.21
2022-08-16T13:07:51.300Z,30.72
2022-08-16T13:10:36.805Z,30.22
2022-08-16T13:13:05.927Z,30.65
2022-08-16T13:15:36.158Z,31.28
2022-08-16T13:18:24.099Z,32.16
2022-08-16T13:20:54.325Z,32.78
2022-08-16T13:23:23.294Z,32.72
2022-08-16T13:25:51.469Z,31.76
2022-08-16T13:28:22.463Z,32.13
2022-08-16T13:30:53.599Z,31.57
2022-08-16T13:33:36.987Z,31.39
2022-08-16T13:36:17.008Z,31.01
2022-08-16T13:38:53.046Z,30.76
2022-08-16T13:41:21.318Z,30.71
2022-08-16T13:43:55.084Z,30.49
2022-08-16T13:46:26.280Z,30.21
2022-08-16T13:48:53.427Z,29.95
2022-08-16T13:51:23.920Z,29.77
2022-08-16T13:54:02.613Z,29.75
2022-08-16T13:56:39.655Z,29.58
2022-08-16T13:59:16.578Z,29.47
2022-08-16T14:01:55.607Z,29.57
2022-08-16T14:04:31.955Z,29.47
2022-08-16T14:07:01.353Z,29.34
2022-08-16T14:09:30.247Z,29.42
2022-08-16T14:11:58.556Z,29.30
2022-08-16T14:14:29.098Z,29.27
2022-08-16T14:17:02.281Z,29.13
2022-08-16T14:19:30.072Z,28.94
2022-08-16T14:22:14.429Z,28.91
2022-08-16T14:24:46.839Z,28.90
2022-08-16T14:27:19.513Z,28.73
2022-08-16T14:29:49.896Z,28.80
2022-08-16T14:32:33.069Z,28.94
2022-08-16T14:35:04.361Z,29.01
2022-08-16T14:37:31.849Z,28.91
2022-08-16T14:39:59.027Z,28.84
2022-08-16T14:42:26.775Z,28.74
2022-08-16T14:44:54.203Z,28.55
2022-08-16T14:47:22.428Z,28.52
2022-08-16T14:49:49.776Z,29.00
2022-08-16T14:52:44.552Z,29.67
2022-08-16T14:55:10.829Z,30.00
2022-08-16T14:57:39.840Z,29.81
2022-08-16T15:00:11.014Z,29.53
2022-08-16T15:02:39.246Z,29.42
2022-08-16T15:05:09.488Z,29.30
2022-08-16T15:07:36.633Z,29.34
2022-08-16T15:10:21.588Z,29.34
2022-08-16T15:12:56.319Z,29.22
2022-08-16T15:15:28.067Z,29.93
2022-08-16T15:17:56.976Z,30.60
2022-08-16T15:20:30.069Z,30.60
2022-08-16T15:22:58.569Z,30.78
2022-08-16T15:25:43.867Z,31.08
2022-08-16T15:28:30.701Z,31.22
2022-08-16T15:31:03.829Z,31.40
2022-08-16T15:33:34.156Z,31.14
2022-08-16T15:36:02.655Z,30.64
2022-08-16T15:38:57.785Z,30.18
2022-08-16T15:41:39.383Z,30.09
2022-08-16T15:44:12.995Z,29.74
2022-08-16T15:46:56.389Z,29.62
2022-08-16T15:49:37.899Z,29.33
2022-08-16T15:52:24.852Z,29.15
2022-08-16T15:54:58.150Z,28.98
2022-08-16T15:57:26.827Z,28.84
2022-08-16T15:59:55.800Z,28.68
2022-08-16T16:02:30.985Z,28.47
2022-08-16T16:05:07.324Z,28.37
2022-08-16T16:07:37.363Z,28.31
2022-08-16T16:10:13.530Z,28.14
2022-08-16T16:12:51.582Z,28.01
2022-08-16T16:15:29.469Z,27.88
2022-08-16T16:17:56.734Z,27.60
2022-08-16T16:20:27.554Z,27.55
2022-08-16T16:23:04.413Z,27.38
2022-08-16T16:25:39.030Z,27.39
2022-08-16T16:28:12.761Z,27.28
2022-08-16T16:30:44.459Z,27.15
2022-08-16T16:33:21.231Z,27.10
2022-08-16T16:35:55.426Z,27.05
2022-08-16T16:38:30.879Z,26.95
2022-08-16T16:41:04.794Z,26.98
2022-08-16T16:43:42.397Z,26.90
2022-08-16T16:46:40.772Z,26.68
2022-08-16T16:48:59.939Z,26.55
2022-08-16T16:51:28.073Z,26.58
2022-08-16T16:53:57.032Z,26.54
2022-08-16T16:56:30.168Z,26.21
2022-08-16T16:59:01.730Z,25.99
2022-08-16T17:01:57.742Z,26.16
2022-08-16T17:04:31.711Z,25.94
2022-08-16T17:07:00.999Z,25.96
2022-08-16T17:09:27.887Z,25.98
2022-08-16T17:11:55.944Z,25.76
2022-08-16T17:14:32.689Z,25.80
2022-08-16T17:17:04.284Z,25.82
2022-08-16T17:19:32.011Z,25.75
2022-08-16T17:22:00.293Z,25.73
2022-08-16T17:24:39.404Z,25.68
2022-08-16T17:27:08.491Z,25.75
2022-08-16T17:29:42.904Z,25.71
2022-08-16T17:32:46.845Z,25.77
2022-08-16T17:35:08.555Z,25.87
2022-08-16T17:37:42.229Z,25.62
2022-08-16T17:40:40.837Z,25.34
2022-08-16T17:43:03.811Z,25.29
2022-08-16T17:45:31.349Z,25.21
2022-08-16T17:48:16.820Z,25.05
2022-08-16T17:51:03.203Z,24.89
2022-08-16T17:53:31.744Z,24.73
2022-08-16T17:55:59.462Z,24.64
2022-08-16T17:58:26.616Z,24.54
2022-08-16T18:00:56.366Z,24.40
2022-08-16T18:04:06.405Z,24.53
2022-08-16T18:06:24.948Z,24.38
2022-08-16T18:09:01.662Z,24.42
2022-08-16T18:11:34.043Z,24.24
2022-08-16T18:14:00.974Z,24.23
2022-08-16T18:16:27.773Z,24.16
2022-08-16T18:18:54.591Z,24.11
2022-08-16T18:21:40.531Z,24.09
2022-08-16T18:24:08.359Z,23.95
2022-08-16T18:26:35.863Z,23.89
2022-08-16T18:29:03.128Z,23.76
2022-08-16T18:31:33.092Z,23.76
2022-08-16T18:34:01.287Z,23.65
2022-08-16T18:36:28.473Z,23.66
2022-08-16T18:38:55.589Z,23.53
2022-08-16T18:41:24.734Z,23.56
2022-08-16T18:44:24.022Z,23.62
2022-08-16T18:46:43.720Z,23.55
2022-08-16T18:49:13.168Z,23.55
2022-08-16T18:51:45.677Z,23.53
2022-08-16T18:54:18.108Z,23.43
2022-08-16T18:56:55.125Z,23.46
2022-08-16T18:59:27.970Z,23.52
2022-08-16T19:02:00.245Z,23.52
2022-08-16T19:04:47.772Z,23.32
2022-08-16T19:07:31.302Z,23.40
2022-08-16T19:10:00.438Z,23.37
2022-08-16T19:12:38.603Z,23.38
2022-08-16T19:15:14.372Z,23.37
2022-08-16T19:17:43.068Z,23.35
2022-08-16T19:20:11.172Z,23.37
2022-08-16T19:23:02.367Z,23.49
2022-08-16T19:25:47.676Z,23.41
2022-08-16T19:28:49.879Z,23.46
2022-08-16T19:31:06.461Z,23.39
2022-08-16T19:33:33.220Z,23.37
2022-08-16T19:36:00.630Z,23.18
2022-08-16T19:38:29.297Z,23.13
2022-08-16T19:40:56.210Z,23.08
2022-08-16T19:43:22.935Z,22.99
2022-08-16T19:45:51.942Z,22.90
2022-08-16T19:48:18.844Z,22.80
2022-08-16T19:50:45.577Z,22.86
2022-08-16T19:53:18.837Z,22.81
2022-08-16T19:55:47.603Z,22.67
2022-08-16T19:58:15.540Z,22.65
2022-08-16T20:00:43.530Z,22.54
2022-08-16T20:03:17.175Z,22.55
2022-08-16T20:05:44.998Z,22.56
2022-08-16T20:08:12.728Z,22.50
2022-08-16T20:10:42.617Z,22.48
2022-08-16T20:13:27.375Z,22.44
2022-08-16T20:15:54.237Z,22.35
2022-08-16T20:18:24.640Z,22.18
2022-08-16T20:20:51.907Z,22.16
2022-08-16T20:23:25.509Z,22.02
2022-08-16T20:25:55.827Z,22.07
2022-08-16T20:28:51.834Z,22.12
2022-08-16T20:31:11.530Z,22.06
2022-08-16T20:33:38.323Z,21.95
2022-08-16T20:36:05.275Z,21.99
2022-08-16T20:38:31.976Z,21.89
2022-08-16T20:40:58.763Z,21.82
2022-08-16T20:43:25.481Z,21.83
2022-08-16T20:45:52.371Z,21.72
2022-08-16T20:48:20.260Z,21.66
2022-08-16T20:50:46.950Z,21.61
2022-08-16T20:53:13.660Z,21.53
2022-08-16T20:55:41.669Z,21.52
2022-08-16T20:58:08.667Z,21.50
2022-08-16T21:00:35.601Z,21.48
2022-08-16T21:03:13.042Z,21.42
2022-08-16T21:05:39.995Z,21.30
2022-08-16T21:08:50.930Z,21.36
2022-08-16T21:10:54.802Z,21.30
2022-08-16T21:13:21.853Z,21.24
2022-08-16T21:15:49.042Z,21.21
2022-08-16T21:18:16.124Z,21.27
2022-08-16T21:20:45.862Z,21.25
2022-08-16T21:23:12.586Z,21.16
2022-08-16T21:25:58.106Z,21.19
2022-08-16T21:28:40.878Z,21.19
2022-08-16T21:31:15.864Z,21.14
2022-08-16T21:33:43.571Z,21.06
2022-08-16T21:36:11.882Z,21.10
2022-08-16T21:38:39.729Z,21.08
2022-08-16T21:41:08.298Z,21.08
2022-08-16T21:43:35.354Z,20.95
2022-08-16T21:46:04.381Z,20.80
2022-08-16T21:48:35.819Z,20.80
2022-08-16T21:51:09.092Z,20.85
2022-08-16T21:53:36.346Z,20.77
2022-08-16T21:56:06.572Z,20.72
2022-08-16T21:58:35.682Z,20.70
2022-08-16T22:01:03.016Z,20.74
2022-08-16T22:03:32.937Z,20.71
2022-08-16T22:06:11.917Z,20.61
2022-08-16T22:08:50.267Z,20.57
2022-08-16T22:11:23.474Z,20.55
2022-08-16T22:13:58.868Z,20.47
2022-08-16T22:16:33.027Z,20.42
2022-08-16T22:19:01.326Z,20.48
2022-08-16T22:21:28.686Z,20.42
2022-08-16T22:23:57.820Z,20.33
2022-08-16T22:26:32.161Z,20.36
2022-08-16T22:29:01.994Z,20.33
2022-08-16T22:31:29.105Z,20.30
2022-08-16T22:33:56.701Z,20.27
2022-08-16T22:36:28.151Z,20.30
2022-08-16T22:38:58.802Z,20.27
2022-08-16T22:41:28.368Z,20.21
2022-08-16T22:43:55.764Z,20.20
2022-08-16T22:46:22.476Z,20.24
2022-08-16T22:48:51.214Z,20.25
2022-08-16T22:51:20.232Z,20.18
2022-08-16T22:53:48.011Z,20.12
2022-08-16T22:56:18.114Z,20.17
2022-08-16T22:58:46.043Z,20.24
2022-08-16T23:01:14.794Z,20.12
2022-08-16T23:03:42.492Z,20.15
2022-08-16T23:06:11.918Z,20.16
2022-08-16T23:08:41.429Z,20.13
2022-08-16T23:11:22.667Z,20.12
2022-08-16T23:13:54.721Z,20.02
2022-08-16T23:16:32.232Z,20.07
2022-08-16T23:19:12.292Z,19.99
2022-08-16T23:21:42.618Z,19.98
2022-08-16T23:24:12.146Z,19.92
2022-08-16T23:26:45.942Z,19.99
2022-08-16T23:29:26.286Z,19.98
2022-08-16T23:31:59.336Z,20.01
2022-08-16T23:34:27.938Z,19.99
2022-08-16T23:36:55.439Z,19.98
2022-08-16T23:39:22.547Z,20.00
2022-08-16T23:41:49.422Z,19.99
2022-08-16T23:44:56.122Z,20.02
2022-08-16T23:47:05.884Z,20.04
2022-08-16T23:49:59.360Z,20.11
2022-08-16T23:52:43.743Z,20.12
2022-08-16T23:55:08.333Z,20.15
2022-08-16T23:57:35.839Z,20.07
